createdAt,value
2023-03-12T00:00:32.433Z,79.46
2023-03-12T00:01:32.387Z,78.94
2023-03-12T00:02:32.406Z,78.94
2023-03-12T00:03:32.389Z,77.79
2023-03-12T00:04:32.489Z,78.00
2023-03-12T00:05:32.354Z,78.10
2023-03-12T00:06:32.333Z,77.79
2023-03-12T00:07:32.316Z,77.48
2023-03-12T00:08:32.308Z,78.69
2023-03-12T00:09:32.312Z,77.55
2023-03-12T00:10:32.299Z,77.75
2023-03-12T00:11:32.299Z,77.44
2023-03-12T00:12:32.255Z,77.75
2023-03-12T00:13:32.226Z,78.10
2023-03-12T00:14:32.226Z,78.52
2023-03-12T00:15:32.209Z,77.89
2023-03-12T00:16:32.202Z,77.58
2023-03-12T00:17:32.198Z,78.10
2023-03-12T00:18:32.177Z,78.42
2023-03-12T00:19:32.153Z,78.20
2023-03-12T00:20:32.148Z,78.00
2023-03-12T00:21:32.148Z,78.63
2023-03-12T00:22:32.157Z,78.52
2023-03-12T00:23:32.112Z,77.89
2023-03-12T00:24:32.096Z,78.42
2023-03-12T00:25:32.077Z,78.94
2023-03-12T00:26:32.098Z,79.46
2023-03-12T00:27:32.066Z,78.63
2023-03-12T00:28:32.044Z,79.14
2023-03-12T00:29:32.027Z,79.56
2023-03-12T00:30:32.028Z,78.73
2023-03-12T00:31:32.046Z,79.66
2023-03-12T00:32:32.145Z,78.52
2023-03-12T00:33:31.981Z,77.79
2023-03-12T00:34:31.985Z,77.75
2023-03-12T00:35:31.989Z,78.38
2023-03-12T00:36:31.957Z,78.59
2023-03-12T00:37:32.168Z,78.80
2023-03-12T00:38:31.912Z,77.79
2023-03-12T00:39:31.960Z,79.00
2023-03-12T00:40:31.893Z,79.00
2023-03-12T00:41:31.887Z,79.56
2023-03-12T00:42:31.860Z,79.63
2023-03-12T00:43:31.857Z,78.94
2023-03-12T00:44:31.842Z,78.42
2023-03-12T00:45:31.817Z,78.63
2023-03-12T00:46:31.912Z,77.37
2023-03-12T00:47:31.810Z,76.09
2023-03-12T00:48:31.789Z,75.78
2023-03-12T00:49:31.756Z,75.74
2023-03-12T00:50:31.753Z,74.91
2023-03-12T00:51:31.751Z,73.46
2023-03-12T00:52:31.774Z,73.32
2023-03-12T00:53:31.751Z,72.80
2023-03-12T00:54:31.757Z,73.00
2023-03-12T00:55:31.680Z,72.49
2023-03-12T00:56:31.666Z,72.69
2023-03-12T00:57:31.669Z,72.80
2023-03-12T00:58:31.654Z,73.11
2023-03-12T00:59:31.633Z,75.19
2023-03-12T01:01:42.810Z,73.83
2023-03-12T01:02:42.802Z,73.32
2023-03-12T01:03:42.850Z,73.42
2023-03-12T01:04:42.782Z,73.21
2023-03-12T01:05:42.744Z,72.69
2023-03-12T01:06:42.728Z,72.38
2023-03-12T01:07:42.897Z,71.86
2023-03-12T01:08:42.723Z,71.44
2023-03-12T01:09:42.715Z,72.59
2023-03-12T01:10:42.692Z,72.90
2023-03-12T01:11:42.668Z,73.52
2023-03-12T01:12:42.676Z,72.59
2023-03-12T01:13:42.635Z,72.80
2023-03-12T01:14:42.620Z,72.49
2023-03-12T01:15:42.603Z,71.65
2023-03-12T01:16:42.615Z,71.44
2023-03-12T01:17:42.667Z,72.14
2023-03-12T01:18:42.587Z,73.11
2023-03-12T01:19:42.591Z,72.17
2023-03-12T01:20:42.572Z,72.28
2023-03-12T01:21:42.541Z,72.59
2023-03-12T01:22:42.521Z,71.86
2023-03-12T01:23:43.465Z,71.55
2023-03-12T01:24:42.506Z,71.34
2023-03-12T01:25:42.488Z,71.00
2023-03-12T01:26:42.502Z,71.51
2023-03-12T01:27:42.459Z,72.66
2023-03-12T01:28:42.542Z,71.51
2023-03-12T01:29:42.429Z,71.41
2023-03-12T01:30:42.419Z,71.41
2023-03-12T01:31:42.418Z,71.10
2023-03-12T01:32:42.438Z,71.51
2023-03-12T01:33:42.393Z,71.41
2023-03-12T01:34:42.390Z,70.27
2023-03-12T01:35:42.520Z,71.62
2023-03-12T01:36:42.342Z,71.31
2023-03-12T01:37:42.338Z,70.27
2023-03-12T01:38:42.319Z,69.61
2023-03-12T01:39:42.290Z,70.44
2023-03-12T01:40:42.298Z,70.03
2023-03-12T01:41:42.277Z,70.97
2023-03-12T01:42:42.291Z,71.80
2023-03-12T01:43:42.246Z,71.93
2023-03-12T01:44:42.237Z,71.20
2023-03-12T01:45:42.273Z,70.23
2023-03-12T01:46:42.198Z,70.03
2023-03-12T01:47:42.193Z,70.75
2023-03-12T01:48:42.183Z,71.48
2023-03-12T01:49:42.204Z,71.20
2023-03-12T01:50:42.153Z,70.44
2023-03-12T01:51:42.160Z,70.86
2023-03-12T01:52:42.137Z,71.48
2023-03-12T01:53:42.117Z,71.28
2023-03-12T01:54:42.094Z,69.92
2023-03-12T01:55:42.083Z,70.23
2023-03-12T01:56:42.089Z,71.59
2023-03-12T01:57:42.097Z,71.69
2023-03-12T01:58:42.080Z,70.34
2023-03-12T01:59:42.036Z,70.86
2023-03-12T02:00:42.038Z,70.44
2023-03-12T02:01:41.997Z,71.07
2023-03-12T02:02:41.985Z,72.00
2023-03-12T02:03:42.061Z,71.48
2023-03-12T02:04:41.970Z,71.80
2023-03-12T02:05:41.947Z,70.65
2023-03-12T02:06:41.928Z,70.34
2023-03-12T02:07:41.965Z,69.82
2023-03-12T02:08:41.906Z,69.71
2023-03-12T02:09:41.912Z,69.71
2023-03-12T02:10:41.892Z,70.54
2023-03-12T02:11:41.897Z,69.61
2023-03-12T02:12:41.858Z,69.82
2023-03-12T02:13:41.876Z,71.07
2023-03-12T02:14:41.833Z,71.17
2023-03-12T02:15:41.833Z,70.23
2023-03-12T02:16:41.834Z,70.13
2023-03-12T02:17:41.791Z,70.86
2023-03-12T02:18:41.806Z,70.44
2023-03-12T02:19:41.780Z,70.23
2023-03-12T02:20:41.764Z,70.44
2023-03-12T02:21:41.748Z,70.75
2023-03-12T02:23:02.743Z,70.65
2023-03-12T02:23:41.750Z,69.92
2023-03-12T02:24:41.750Z,69.92
2023-03-12T02:25:41.683Z,69.92
2023-03-12T02:26:41.674Z,71.07
2023-03-12T02:27:41.664Z,70.65
2023-03-12T02:28:41.640Z,70.44
2023-03-12T02:29:41.672Z,70.65
2023-03-12T02:30:41.629Z,71.07
2023-03-12T02:31:41.640Z,71.28
2023-03-12T02:32:41.628Z,71.80
2023-03-12T02:33:41.573Z,72.31
2023-03-12T02:34:41.602Z,72.24
2023-03-12T02:35:41.561Z,72.34
2023-03-12T02:36:41.556Z,71.93
2023-03-12T02:37:41.541Z,71.93
2023-03-12T02:38:41.535Z,71.69
2023-03-12T02:39:41.504Z,71.38
2023-03-12T02:40:41.551Z,70.86
2023-03-12T02:41:41.481Z,71.69
2023-03-12T02:42:41.472Z,71.07
2023-03-12T02:43:41.484Z,71.48
2023-03-12T02:44:41.453Z,70.97
2023-03-12T02:45:41.452Z,70.44
2023-03-12T02:46:41.430Z,70.97
2023-03-12T02:47:41.406Z,71.48
2023-03-12T02:48:41.382Z,71.28
2023-03-12T02:49:41.377Z,72.73
2023-03-12T02:50:41.364Z,72.21
2023-03-12T02:51:41.344Z,72.94
2023-03-12T02:52:41.375Z,72.21
2023-03-12T02:53:41.335Z,72.52
2023-03-12T02:54:41.316Z,71.38
2023-03-12T02:55:41.316Z,71.48
2023-03-12T02:56:41.287Z,72.11
2023-03-12T02:57:41.276Z,73.14
2023-03-12T02:58:41.919Z,72.11
2023-03-12T02:59:41.245Z,71.59
2023-03-12T03:00:41.240Z,71.72
2023-03-12T03:01:41.269Z,71.93
2023-03-12T03:02:41.235Z,71.72
2023-03-12T03:03:41.311Z,73.80
2023-03-12T03:04:41.190Z,73.07
2023-03-12T03:05:41.169Z,72.34
2023-03-12T03:06:41.204Z,72.76
2023-03-12T03:07:41.137Z,72.55
2023-03-12T03:08:41.777Z,72.45
2023-03-12T03:09:41.118Z,72.97
2023-03-12T03:10:41.095Z,72.86
2023-03-12T03:11:41.113Z,72.45
2023-03-12T03:12:41.089Z,73.60
2023-03-12T03:13:41.052Z,73.60
2023-03-12T03:14:41.038Z,73.91
2023-03-12T03:15:41.086Z,74.35
2023-03-12T03:16:41.018Z,74.35
2023-03-12T03:17:41.205Z,74.46
2023-03-12T03:18:40.993Z,73.52
2023-03-12T03:19:40.999Z,73.49
2023-03-12T03:20:40.983Z,73.39
2023-03-12T03:21:40.973Z,73.60
2023-03-12T03:22:40.960Z,74.43
2023-03-12T03:23:40.942Z,73.80
2023-03-12T03:24:40.908Z,73.70
2023-03-12T03:25:40.912Z,73.60
2023-03-12T03:26:40.894Z,73.60
2023-03-12T03:27:40.967Z,73.80
2023-03-12T03:29:40.845Z,73.60
2023-03-12T03:30:40.846Z,73.18
2023-03-12T03:31:40.873Z,73.28
2023-03-12T03:32:40.893Z,73.49
2023-03-12T03:33:40.842Z,73.49
2023-03-12T03:34:40.798Z,73.49
2023-03-12T03:35:40.855Z,73.80
2023-03-12T03:36:40.756Z,72.55
2023-03-12T03:37:40.797Z,72.52
2023-03-12T03:38:40.765Z,72.21
2023-03-12T03:39:48.296Z,72.66
2023-03-12T03:40:40.713Z,72.97
2023-03-12T03:41:40.703Z,72.86
2023-03-12T03:42:40.692Z,73.80
2023-03-12T03:43:40.667Z,73.91
2023-03-12T03:44:40.648Z,72.76
2023-03-12T03:45:40.662Z,72.97
2023-03-12T03:46:40.701Z,72.42
2023-03-12T03:47:40.661Z,72.73
2023-03-12T03:48:40.646Z,72.73
2023-03-12T03:49:40.585Z,72.63
2023-03-12T03:50:40.571Z,72.63
2023-03-12T03:51:40.572Z,73.66
2023-03-12T03:52:40.569Z,73.66
2023-03-12T03:53:40.541Z,72.63
2023-03-12T03:54:40.520Z,72.52
2023-03-12T03:55:40.550Z,72.00
2023-03-12T03:56:40.503Z,71.90
2023-03-12T03:57:40.494Z,71.69
2023-03-12T03:58:40.503Z,72.21
2023-03-12T03:59:40.459Z,71.38
2023-03-12T04:00:40.460Z,71.90
2023-03-12T04:01:40.433Z,71.90
2023-03-12T04:02:40.442Z,72.00
2023-03-12T04:03:40.517Z,71.59
2023-03-12T04:04:40.592Z,71.45
2023-03-12T04:05:40.415Z,72.21
2023-03-12T04:06:40.364Z,72.49
2023-03-12T04:07:40.356Z,72.11
2023-03-12T04:08:40.448Z,71.76
2023-03-12T04:09:40.337Z,71.34
2023-03-12T04:10:40.296Z,71.76
2023-03-12T04:11:40.305Z,70.93
2023-03-12T04:12:40.277Z,70.83
2023-03-12T04:13:40.333Z,71.03
2023-03-12T04:14:40.261Z,71.76
2023-03-12T04:15:40.274Z,72.07
2023-03-12T04:16:40.223Z,72.69
2023-03-12T04:17:40.260Z,72.80
2023-03-12T04:18:40.207Z,72.59
2023-03-12T04:19:40.237Z,71.66
2023-03-12T04:20:40.189Z,71.45
2023-03-12T04:21:40.165Z,71.86
2023-03-12T04:22:40.139Z,72.69
2023-03-12T04:23:40.150Z,71.76
2023-03-12T04:24:40.131Z,71.45
2023-03-12T04:25:40.123Z,71.86
2023-03-12T04:26:40.088Z,72.07
2023-03-12T04:27:40.085Z,72.38
2023-03-12T04:28:40.077Z,73.32
2023-03-12T04:29:40.085Z,72.59
2023-03-12T04:30:40.035Z,72.17
2023-03-12T04:31:40.123Z,71.86
2023-03-12T04:32:40.045Z,71.76
2023-03-12T04:33:40.029Z,72.17
2023-03-12T04:34:40.000Z,72.59
2023-03-12T04:35:40.126Z,71.66
2023-03-12T04:36:39.981Z,71.24
2023-03-12T04:37:39.977Z,71.34
2023-03-12T04:38:39.950Z,72.07
2023-03-12T04:39:39.933Z,71.86
2023-03-12T04:40:40.068Z,71.97
2023-03-12T04:41:39.913Z,71.76
2023-03-12T04:42:39.897Z,72.17
2023-03-12T04:43:39.888Z,72.69
2023-03-12T04:44:39.886Z,71.86
2023-03-12T04:45:39.862Z,71.66
2023-03-12T04:46:39.935Z,71.34
2023-03-12T04:47:39.836Z,71.03
2023-03-12T04:48:39.824Z,71.03
2023-03-12T04:49:39.828Z,71.52
2023-03-12T04:50:39.786Z,72.07
2023-03-12T04:51:39.783Z,71.97
2023-03-12T04:52:39.774Z,71.55
2023-03-12T04:53:39.828Z,71.24
2023-03-12T04:54:39.761Z,71.66
2023-03-12T04:55:39.742Z,71.42
2023-03-12T04:56:39.755Z,71.66
2023-03-12T04:57:39.708Z,71.76
2023-03-12T04:58:39.727Z,72.38
2023-03-12T04:59:39.677Z,72.69
2023-03-12T05:00:39.709Z,72.90
2023-03-12T05:01:39.672Z,72.38
2023-03-12T05:02:39.685Z,71.45
2023-03-12T05:03:39.688Z,71.45
2023-03-12T05:04:39.623Z,71.62
2023-03-12T05:05:39.606Z,72.25
2023-03-12T05:06:39.581Z,71.73
2023-03-12T05:07:39.577Z,71.52
2023-03-12T05:08:39.598Z,71.83
2023-03-12T05:09:39.590Z,72.56
2023-03-12T05:10:39.549Z,72.14
2023-03-12T05:11:39.981Z,72.14
2023-03-12T05:12:39.504Z,71.52
2023-03-12T05:13:39.539Z,72.35
2023-03-12T05:14:39.475Z,72.14
2023-03-12T05:15:39.469Z,72.14
2023-03-12T05:16:39.501Z,71.73
2023-03-12T05:17:39.452Z,71.21
2023-03-12T05:18:39.419Z,71.83
2023-03-12T05:19:39.431Z,71.94
2023-03-12T05:20:39.427Z,71.31
2023-03-12T05:21:39.420Z,71.21
2023-03-12T05:22:39.399Z,70.79
2023-03-12T05:23:39.395Z,71.52
2023-03-12T05:24:39.469Z,71.73
2023-03-12T05:25:39.443Z,71.42
2023-03-12T05:26:39.411Z,71.21
2023-03-12T05:27:39.328Z,71.42
2023-03-12T05:28:39.374Z,71.42
2023-03-12T05:29:39.327Z,71.83
2023-03-12T05:30:39.282Z,72.14
2023-03-12T05:31:39.333Z,71.83
2023-03-12T05:32:39.385Z,71.62
2023-03-12T05:33:39.243Z,71.94
2023-03-12T05:34:39.294Z,71.83
2023-03-12T05:35:39.245Z,71.21
2023-03-12T05:36:39.210Z,72.56
2023-03-12T05:37:39.193Z,72.97
2023-03-12T05:38:39.373Z,72.97
2023-03-12T05:39:39.338Z,72.77
2023-03-12T05:40:39.162Z,72.25
2023-03-12T05:41:39.135Z,72.77
2023-03-12T05:42:39.157Z,72.87
2023-03-12T05:44:14.363Z,73.70
2023-03-12T05:44:39.097Z,73.18
2023-03-12T05:45:39.134Z,74.01
2023-03-12T05:46:39.084Z,73.70
2023-03-12T05:47:39.054Z,74.22
2023-03-12T05:48:39.072Z,74.63
2023-03-12T05:49:39.019Z,74.74
2023-03-12T05:50:39.019Z,74.84
2023-03-12T05:51:46.532Z,75.46
2023-03-12T05:52:38.980Z,75.78
2023-03-12T05:53:38.970Z,75.78
2023-03-12T05:54:47.496Z,76.64
2023-03-12T05:55:38.950Z,76.09
2023-03-12T05:56:38.919Z,76.95
2023-03-12T05:57:38.930Z,76.85
2023-03-12T05:58:38.920Z,77.16
2023-03-12T05:59:38.901Z,77.68
2023-03-12T06:00:38.889Z,77.47
2023-03-12T06:01:38.872Z,77.78
2023-03-12T06:02:38.843Z,77.99
2023-03-12T06:03:38.868Z,77.99
2023-03-12T06:04:38.860Z,78.20
2023-03-12T06:05:38.804Z,79.24
2023-03-12T06:06:38.798Z,78.72
2023-03-12T06:07:38.789Z,78.92
2023-03-12T06:08:38.772Z,78.82
2023-03-12T06:09:38.781Z,78.61
2023-03-12T06:10:38.782Z,79.34
2023-03-12T06:11:38.774Z,79.03
2023-03-12T06:12:38.726Z,79.03
2023-03-12T06:13:38.756Z,79.90
2023-03-12T06:14:38.670Z,80.52
2023-03-12T06:15:38.713Z,80.42
2023-03-12T06:16:38.698Z,80.00
2023-03-12T06:17:38.659Z,80.11
2023-03-12T06:18:38.659Z,80.07
2023-03-12T06:19:38.657Z,79.86
2023-03-12T06:20:38.616Z,79.86
2023-03-12T06:21:38.645Z,79.76
2023-03-12T06:22:38.626Z,80.38
2023-03-12T06:23:38.574Z,80.49
2023-03-12T06:24:38.582Z,80.59
2023-03-12T06:25:38.543Z,80.80
2023-03-12T06:26:38.523Z,80.59
2023-03-12T06:27:38.535Z,80.69
2023-03-12T06:28:38.520Z,81.01
2023-03-12T06:29:38.621Z,81.42
2023-03-12T06:30:38.506Z,80.49
2023-03-12T06:31:39.064Z,80.80
2023-03-12T06:32:38.503Z,80.90
2023-03-12T06:33:38.445Z,80.59
2023-03-12T06:34:38.447Z,81.01
2023-03-12T06:35:38.520Z,81.01
2023-03-12T06:36:38.454Z,80.80
2023-03-12T06:37:38.412Z,80.90
2023-03-12T06:38:38.399Z,81.32
2023-03-12T06:39:38.364Z,81.94
2023-03-12T06:40:38.354Z,81.52
2023-03-12T06:41:38.396Z,82.25
2023-03-12T06:42:38.361Z,82.35
2023-03-12T06:43:38.342Z,82.04
2023-03-12T06:44:38.353Z,81.94
2023-03-12T06:45:38.296Z,82.46
2023-03-12T06:46:38.355Z,82.04
2023-03-12T06:47:38.268Z,82.35
2023-03-12T06:48:38.255Z,82.77
2023-03-12T06:49:38.241Z,82.77
2023-03-12T06:50:38.235Z,82.98
2023-03-12T06:51:38.249Z,83.08
2023-03-12T06:52:38.196Z,83.70
2023-03-12T06:53:40.428Z,84.12
2023-03-12T06:54:38.173Z,84.84
2023-03-12T06:55:38.172Z,85.16
2023-03-12T06:56:38.159Z,85.36
2023-03-12T06:57:38.130Z,85.57
2023-03-12T06:58:38.110Z,85.57
2023-03-12T06:59:38.127Z,85.47
2023-03-12T07:00:38.077Z,85.68
2023-03-12T07:01:38.068Z,85.88
2023-03-12T07:02:38.139Z,86.09
2023-03-12T07:03:38.056Z,86.30
2023-03-12T07:04:38.213Z,86.61
2023-03-12T07:05:38.030Z,86.72
2023-03-12T07:06:38.020Z,86.93
2023-03-12T07:07:38.013Z,87.45
2023-03-12T07:08:37.982Z,88.10
2023-03-12T07:09:38.001Z,88.31
2023-03-12T07:10:37.961Z,88.48
2023-03-12T07:11:38.087Z,88.73
2023-03-12T07:12:37.954Z,89.15
2023-03-12T07:13:37.937Z,89.67
2023-03-12T07:14:37.937Z,90.08
2023-03-12T07:15:37.916Z,90.29
2023-03-12T07:16:37.901Z,90.39
2023-03-12T07:17:37.859Z,90.60
2023-03-12T07:18:37.922Z,90.70
2023-03-12T07:19:37.880Z,91.02
2023-03-12T07:20:37.868Z,91.12
2023-03-12T07:21:37.846Z,91.22
2023-03-12T07:22:37.849Z,91.53
2023-03-12T07:23:37.809Z,91.53
2023-03-12T07:24:37.780Z,91.53
2023-03-12T07:25:37.777Z,91.74
2023-03-12T07:26:37.742Z,91.64
2023-03-12T07:27:37.720Z,91.74
2023-03-12T07:28:37.750Z,91.95
2023-03-12T07:29:37.711Z,92.16
2023-03-12T07:30:37.689Z,92.16
2023-03-12T07:31:37.811Z,92.16
2023-03-12T07:32:37.767Z,92.36
2023-03-12T07:33:37.732Z,92.74
2023-03-12T07:34:37.759Z,92.84
2023-03-12T07:35:37.694Z,92.43
2023-03-12T07:36:37.757Z,92.43
2023-03-12T07:37:37.612Z,92.22
2023-03-12T07:38:37.583Z,92.43
2023-03-12T07:39:37.644Z,92.74
2023-03-12T07:40:37.586Z,92.53
2023-03-12T07:41:37.579Z,92.84
2023-03-12T07:42:37.566Z,93.57
2023-03-12T07:43:37.573Z,93.57
2023-03-12T07:44:37.541Z,93.68
2023-03-12T07:45:37.564Z,93.88
2023-03-12T07:46:37.593Z,93.68
2023-03-12T07:47:37.641Z,93.68
2023-03-12T07:48:37.514Z,93.57
2023-03-12T07:49:37.574Z,93.68
2023-03-12T07:50:37.467Z,94.09
2023-03-12T07:51:37.440Z,93.88
2023-03-12T07:52:37.533Z,94.09
2023-03-12T07:53:37.436Z,93.99
2023-03-12T07:54:37.410Z,94.20
2023-03-12T07:55:37.464Z,94.30
2023-03-12T07:56:37.424Z,94.20
2023-03-12T07:57:37.352Z,93.68
2023-03-12T07:58:37.370Z,93.37
2023-03-12T07:59:37.335Z,93.53
2023-03-12T08:00:37.326Z,93.63
2023-03-12T08:01:37.484Z,93.84
2023-03-12T08:02:37.601Z,93.53
2023-03-12T08:03:37.502Z,93.74
2023-03-12T08:04:44.386Z,94.05
2023-03-12T08:05:37.256Z,93.70
2023-03-12T08:06:37.225Z,93.63
2023-03-12T08:07:37.263Z,93.53
2023-03-12T08:08:37.210Z,93.95
2023-03-12T08:09:37.191Z,94.15
2023-03-12T08:10:37.235Z,94.46
2023-03-12T08:11:37.150Z,94.78
2023-03-12T08:12:37.178Z,94.84
2023-03-12T08:13:37.156Z,95.04
2023-03-12T08:14:37.271Z,94.63
2023-03-12T08:15:37.090Z,94.73
2023-03-12T08:16:37.148Z,94.11
2023-03-12T08:17:37.056Z,94.01
2023-03-12T08:18:37.902Z,94.42
2023-03-12T08:19:37.063Z,94.42
2023-03-12T08:20:37.055Z,94.21
2023-03-12T08:21:37.012Z,94.17
2023-03-12T08:22:37.008Z,93.80
2023-03-12T08:23:44.511Z,93.96
2023-03-12T08:24:36.972Z,93.44
2023-03-12T08:25:36.962Z,93.23
2023-03-12T08:26:36.970Z,93.54
2023-03-12T08:27:36.953Z,93.75
2023-03-12T08:28:44.426Z,93.65
2023-03-12T08:29:44.435Z,93.65
2023-03-12T08:30:36.892Z,93.40
2023-03-12T08:31:36.986Z,92.98
2023-03-12T08:32:37.049Z,92.68
2023-03-12T08:33:36.876Z,92.57
2023-03-12T08:34:36.947Z,92.94
2023-03-12T08:35:36.845Z,92.74
2023-03-12T08:36:36.862Z,91.70
2023-03-12T08:37:36.843Z,92.01
2023-03-12T08:38:36.800Z,92.63
2023-03-12T08:39:36.806Z,92.94
2023-03-12T08:40:36.780Z,92.84
2023-03-12T08:41:36.772Z,93.15
2023-03-12T08:42:36.750Z,93.35
2023-03-12T08:43:36.750Z,93.56
2023-03-12T08:44:36.745Z,93.66
2023-03-12T08:45:36.797Z,93.77
2023-03-12T08:46:36.751Z,93.10
2023-03-12T08:47:36.694Z,92.94
2023-03-12T08:48:36.672Z,92.84
2023-03-12T08:49:36.650Z,93.15
2023-03-12T08:50:36.701Z,93.87
2023-03-12T08:51:36.698Z,93.98
2023-03-12T08:52:36.625Z,93.77
2023-03-12T08:53:36.620Z,93.66
2023-03-12T08:54:36.589Z,94.04
2023-03-12T08:55:36.590Z,93.93
2023-03-12T08:56:36.587Z,93.73
2023-03-12T08:57:36.604Z,93.52
2023-03-12T08:58:36.553Z,94.10
2023-03-12T08:59:36.521Z,93.62
2023-03-12T09:00:36.575Z,93.83
2023-03-12T09:01:36.509Z,94.35
2023-03-12T09:02:36.516Z,94.97
2023-03-12T09:03:36.517Z,95.07
2023-03-12T09:04:36.528Z,95.32
2023-03-12T09:05:36.458Z,95.53
2023-03-12T09:06:36.519Z,95.84
2023-03-12T09:07:36.454Z,96.47
2023-03-12T09:08:36.424Z,96.98
2023-03-12T09:09:36.451Z,97.29
2023-03-12T09:10:36.418Z,97.39
2023-03-12T09:11:36.379Z,97.50
2023-03-12T09:12:36.383Z,98.02
2023-03-12T09:13:54.610Z,98.12
2023-03-12T09:15:05.388Z,98.43
2023-03-12T09:15:38.075Z,99.05
2023-03-12T09:16:36.378Z,99.16
2023-03-12T09:17:36.295Z,99.57
2023-03-12T09:18:38.876Z,99.68
2023-03-12T09:19:36.286Z,99.99
2023-03-12T09:20:36.270Z,99.99
2023-03-12T09:21:36.287Z,99.99
2023-03-12T09:22:36.262Z,99.99
2023-03-12T09:23:36.250Z,99.99
2023-03-12T09:24:36.227Z,99.99
2023-03-12T09:25:36.236Z,99.99
2023-03-12T09:26:36.211Z,99.99
2023-03-12T09:27:36.186Z,99.99
2023-03-12T09:28:36.164Z,99.99
2023-03-12T09:29:46.536Z,99.99
2023-03-12T09:30:37.170Z,99.99
2023-03-12T09:31:36.154Z,99.99
2023-03-12T09:32:36.123Z,99.99
2023-03-12T09:33:36.136Z,99.99
2023-03-12T09:34:36.088Z,99.99
2023-03-12T09:35:36.085Z,99.99
2023-03-12T09:36:36.082Z,99.99
2023-03-12T09:37:36.051Z,99.99
2023-03-12T09:38:36.057Z,99.99
2023-03-12T09:39:36.082Z,99.99
2023-03-12T09:40:36.008Z,99.99
2023-03-12T09:41:35.996Z,99.99
2023-03-12T09:42:35.972Z,99.99
2023-03-12T09:43:35.991Z,99.99
2023-03-12T09:44:36.033Z,99.99
2023-03-12T09:45:35.949Z,99.99
2023-03-12T09:46:35.927Z,99.99
2023-03-12T09:47:35.923Z,99.99
2023-03-12T09:48:35.925Z,99.99
2023-03-12T09:49:35.904Z,99.99
2023-03-12T09:50:37.347Z,99.99
2023-03-12T09:51:35.890Z,99.99
2023-03-12T09:52:35.898Z,99.99
2023-03-12T09:53:35.865Z,99.99
2023-03-12T09:54:35.867Z,99.99
2023-03-12T09:55:35.835Z,99.99
2023-03-12T09:56:35.816Z,99.99
2023-03-12T09:57:35.812Z,99.99
2023-03-12T09:58:35.775Z,99.99
2023-03-12T09:59:35.855Z,99.99
2023-03-12T10:00:35.753Z,99.99
2023-03-12T10:01:35.749Z,99.99
2023-03-12T10:02:35.731Z,99.99
2023-03-12T10:03:35.735Z,99.99
2023-03-12T10:04:48.685Z,99.99
2023-03-12T10:05:36.700Z,99.99
2023-03-12T10:06:35.736Z,99.99
2023-03-12T10:07:35.659Z,99.99
2023-03-12T10:08:35.679Z,99.99
2023-03-12T10:09:35.665Z,99.99
2023-03-12T10:10:35.629Z,99.99
2023-03-12T10:11:35.626Z,99.99
2023-03-12T10:12:35.664Z,99.99
2023-03-12T10:13:35.905Z,99.99
2023-03-12T10:14:35.573Z,99.99
2023-03-12T10:15:35.579Z,99.99
2023-03-12T10:16:35.560Z,99.99
2023-03-12T10:17:35.602Z,99.99
2023-03-12T10:18:35.706Z,99.99
2023-03-12T10:19:35.537Z,99.99
2023-03-12T10:20:35.501Z,99.99
2023-03-12T10:21:35.510Z,99.99
2023-03-12T10:22:35.495Z,99.99
2023-03-12T10:23:35.493Z,99.99
2023-03-12T10:24:35.469Z,99.99
2023-03-12T10:25:35.446Z,99.99
2023-03-12T10:26:35.444Z,99.99
2023-03-12T10:27:35.414Z,99.99
2023-03-12T10:28:35.413Z,99.99
2023-03-12T10:29:35.378Z,99.99
2023-03-12T10:30:35.382Z,99.99
2023-03-12T10:31:35.366Z,99.99
2023-03-12T10:32:35.394Z,99.99
2023-03-12T10:33:35.357Z,99.99
2023-03-12T10:34:35.331Z,99.99
2023-03-12T10:35:35.335Z,99.99
2023-03-12T10:36:35.308Z,99.99
2023-03-12T10:37:35.353Z,99.99
2023-03-12T10:38:35.279Z,99.99
2023-03-12T10:39:35.319Z,99.99
2023-03-12T10:40:35.272Z,99.99
2023-03-12T10:41:35.285Z,99.99
2023-03-12T10:42:35.245Z,99.99
2023-03-12T10:43:35.238Z,99.99
2023-03-12T10:44:35.228Z,99.99
2023-03-12T10:45:35.205Z,99.99
2023-03-12T10:46:35.366Z,99.99
2023-03-12T10:47:35.186Z,99.99
2023-03-12T10:48:35.240Z,99.99
2023-03-12T10:49:35.136Z,99.99
2023-03-12T10:50:35.132Z,99.99
2023-03-12T10:51:35.154Z,99.99
2023-03-12T10:52:35.109Z,99.99
2023-03-12T10:53:35.082Z,99.99
2023-03-12T10:54:35.100Z,99.99
2023-03-12T10:55:35.063Z,99.99
2023-03-12T10:56:35.080Z,99.99
2023-03-12T10:57:35.057Z,99.99
2023-03-12T10:58:35.050Z,99.99
2023-03-12T10:59:35.018Z,99.99
2023-03-12T11:00:35.038Z,99.99
2023-03-12T11:01:35.017Z,99.99
2023-03-12T11:02:34.992Z,99.99
2023-03-12T11:03:34.972Z,99.99
2023-03-12T11:04:34.959Z,99.99
2023-03-12T11:05:35.044Z,99.99
2023-03-12T11:06:34.961Z,99.99
2023-03-12T11:07:34.919Z,99.99
2023-03-12T11:08:34.908Z,99.99
2023-03-12T11:09:34.897Z,99.99
2023-03-12T11:10:34.892Z,99.99
2023-03-12T11:11:34.884Z,99.99
2023-03-12T11:12:34.862Z,99.99
2023-03-12T11:13:34.880Z,99.99
2023-03-12T11:14:34.832Z,99.99
2023-03-12T11:15:34.822Z,99.99
2023-03-12T11:16:34.901Z,99.99
2023-03-12T11:17:34.807Z,99.99
2023-03-12T11:18:34.833Z,99.99
2023-03-12T11:19:34.800Z,99.99
2023-03-12T11:20:34.773Z,99.99
2023-03-12T11:21:34.746Z,99.99
2023-03-12T11:22:34.764Z,99.99
2023-03-12T11:23:34.750Z,99.99
2023-03-12T11:24:34.753Z,99.99
2023-03-12T11:25:34.715Z,99.99
2023-03-12T11:26:34.724Z,99.99
2023-03-12T11:27:34.672Z,99.99
2023-03-12T11:28:34.705Z,99.99
2023-03-12T11:29:34.779Z,99.99
2023-03-12T11:30:34.717Z,99.99
2023-03-12T11:31:34.653Z,99.99
2023-03-12T11:32:34.688Z,99.99
2023-03-12T11:33:34.649Z,99.99
2023-03-12T11:34:34.617Z,99.99
2023-03-12T11:35:34.601Z,99.99
2023-03-12T11:36:34.569Z,99.99
2023-03-12T11:37:34.593Z,99.99
2023-03-12T11:38:34.542Z,99.99
2023-03-12T11:39:34.532Z,99.99
2023-03-12T11:40:34.572Z,99.99
2023-03-12T11:41:34.511Z,99.99
2023-03-12T11:42:34.518Z,99.99
2023-03-12T11:43:43.326Z,99.99
2023-03-12T11:44:35.473Z,99.99
2023-03-12T11:45:34.461Z,99.99
2023-03-12T11:46:34.560Z,99.99
2023-03-12T11:47:34.528Z,99.99
2023-03-12T11:48:34.471Z,99.99
2023-03-12T11:49:34.417Z,99.99
2023-03-12T11:50:34.404Z,99.99
2023-03-12T11:51:34.401Z,99.99
2023-03-12T11:52:34.369Z,99.99
2023-03-12T11:53:34.416Z,99.99
2023-03-12T11:54:34.340Z,99.99
2023-03-12T11:55:34.352Z,99.99
2023-03-12T11:56:34.345Z,99.99
2023-03-12T11:57:34.302Z,99.99
2023-03-12T11:58:34.323Z,99.99
2023-03-12T11:59:34.306Z,99.99
2023-03-12T12:00:34.273Z,99.99
2023-03-12T12:01:34.259Z,99.99
2023-03-12T12:02:34.248Z,99.99
2023-03-12T12:03:34.282Z,99.99
2023-03-12T12:04:34.241Z,99.99
2023-03-12T12:05:34.234Z,99.99
2023-03-12T12:06:34.193Z,99.99
2023-03-12T12:07:34.217Z,99.99
2023-03-12T12:08:34.218Z,99.99
2023-03-12T12:09:34.178Z,99.99
2023-03-12T12:10:34.165Z,99.99
2023-03-12T12:11:34.125Z,99.99
2023-03-12T12:12:34.115Z,99.99
2023-03-12T12:13:34.113Z,99.99
2023-03-12T12:14:34.098Z,99.99
2023-03-12T12:15:34.106Z,99.99
2023-03-12T12:16:34.186Z,99.99
2023-03-12T12:17:34.055Z,99.99
2023-03-12T12:18:34.040Z,99.99
2023-03-12T12:19:34.030Z,99.99
2023-03-12T12:20:34.037Z,99.99
2023-03-12T12:21:34.009Z,99.99
2023-03-12T12:22:34.013Z,99.99
2023-03-12T12:23:33.982Z,99.99
2023-03-12T12:24:33.967Z,99.99
2023-03-12T12:25:33.993Z,99.99
2023-03-12T12:26:33.939Z,99.99
2023-03-12T12:27:33.934Z,99.99
2023-03-12T12:28:33.910Z,99.99
2023-03-12T12:29:36.595Z,99.99
2023-03-12T12:30:33.890Z,99.99
2023-03-12T12:31:33.913Z,99.99
2023-03-12T12:32:33.890Z,99.99
2023-03-12T12:33:33.854Z,99.99
2023-03-12T12:34:33.823Z,99.99
2023-03-12T12:35:33.847Z,99.99
2023-03-12T12:36:33.833Z,99.99
2023-03-12T12:37:33.835Z,99.99
2023-03-12T12:38:33.773Z,99.99
2023-03-12T12:39:33.758Z,99.99
2023-03-12T12:40:33.763Z,99.99
2023-03-12T12:41:33.746Z,99.99
2023-03-12T12:42:33.758Z,99.99
2023-03-12T12:43:33.715Z,99.99
2023-03-12T12:44:33.688Z,99.99
2023-03-12T12:45:33.677Z,99.99
2023-03-12T12:46:33.716Z,99.99
2023-03-12T12:47:33.653Z,99.99
2023-03-12T12:48:33.662Z,99.99
2023-03-12T12:49:33.680Z,99.99
2023-03-12T12:50:33.632Z,99.99
2023-03-12T12:51:33.626Z,99.99
2023-03-12T12:52:33.614Z,99.99
2023-03-12T12:53:33.628Z,99.99
2023-03-12T12:54:33.572Z,99.99